createdAt,value
2022-08-20T00:02:29.334Z,91.25
2022-08-20T00:05:35.553Z,91.52
2022-08-20T00:08:41.065Z,91.87
2022-08-20T00:11:46.774Z,91.59
2022-08-20T00:14:52.220Z,91.77
2022-08-20T00:17:58.285Z,92.24
2022-08-20T00:21:03.790Z,91.74
2022-08-20T00:24:09.180Z,92.04
2022-08-20T00:27:14.590Z,92.25
2022-08-20T00:30:20.866Z,91.83
2022-08-20T00:33:26.195Z,91.92
2022-08-20T00:36:32.845Z,92.55
2022-08-20T00:39:38.584Z,92.65
2022-08-20T00:42:45.258Z,92.36
2022-08-20T00:45:50.845Z,92.44
2022-08-20T00:48:57.727Z,92.83
2022-08-20T00:52:04.979Z,92.83
2022-08-20T00:55:12.330Z,93.07
2022-08-20T00:58:18.565Z,92.87
2022-08-20T01:01:24.236Z,92.56
2022-08-20T01:04:31.411Z,92.64
2022-08-20T01:07:37.372Z,92.78
2022-08-20T01:10:44.830Z,93.30
2022-08-20T01:13:50.717Z,92.94
2022-08-20T01:16:57.476Z,93.41
2022-08-20T01:20:05.219Z,93.41
2022-08-20T01:23:31.281Z,93.81
2022-08-20T01:26:38.921Z,94.17
2022-08-20T01:29:44.495Z,94.01
2022-08-20T01:32:49.944Z,94.10
2022-08-20T01:35:55.338Z,94.75
2022-08-20T01:39:01.380Z,94.45
2022-08-20T01:42:09.973Z,94.78
2022-08-20T01:45:15.847Z,95.47
2022-08-20T01:48:23.071Z,95.31
2022-08-20T01:51:30.777Z,95.43
2022-08-20T01:54:36.639Z,95.52
2022-08-20T01:57:42.298Z,95.68
2022-08-20T02:00:47.614Z,96.32
2022-08-20T02:03:54.177Z,96.63
2022-08-20T02:07:01.379Z,96.59
2022-08-20T02:10:07.914Z,96.87
2022-08-20T02:13:13.761Z,97.25
2022-08-20T02:16:19.216Z,97.56
2022-08-20T02:19:27.274Z,97.58
2022-08-20T02:22:37.960Z,97.40
2022-08-20T02:25:45.057Z,97.43
2022-08-20T02:28:50.946Z,98.02
2022-08-20T02:32:24.773Z,97.72
2022-08-20T02:35:22.133Z,97.42
2022-08-20T02:38:27.500Z,97.57
2022-08-20T02:41:32.772Z,97.87
2022-08-20T02:44:38.255Z,97.79
2022-08-20T02:47:44.258Z,98.65
2022-08-20T02:50:51.641Z,98.82
2022-08-20T02:53:56.960Z,98.60
2022-08-20T02:57:03.811Z,98.95
2022-08-20T03:00:14.462Z,99.30
2022-08-20T03:03:22.948Z,99.36
2022-08-20T03:06:28.555Z,100.00
2022-08-20T03:09:33.914Z,99.92
2022-08-20T03:12:39.278Z,100.00
2022-08-20T03:15:46.071Z,100.00
2022-08-20T03:18:52.043Z,100.00
2022-08-20T03:21:58.062Z,100.00
2022-08-20T03:25:03.348Z,100.00
2022-08-20T03:28:09.173Z,100.00
2022-08-20T03:31:15.474Z,100.00
2022-08-20T03:34:20.861Z,100.00
2022-08-20T03:37:26.205Z,100.00
2022-08-20T03:40:33.690Z,100.00
2022-08-20T03:43:41.035Z,100.00
2022-08-20T03:46:46.536Z,100.00
2022-08-20T03:49:51.924Z,100.00
2022-08-20T03:52:57.747Z,100.00
2022-08-20T03:56:05.170Z,100.00
2022-08-20T03:59:10.509Z,100.00
2022-08-20T04:02:15.992Z,100.00
2022-08-20T04:05:21.560Z,100.00
2022-08-20T04:08:30.592Z,100.00
2022-08-20T04:11:37.645Z,100.00
2022-08-20T04:14:43.146Z,100.00
2022-08-20T04:17:50.227Z,100.00
2022-08-20T04:20:55.868Z,100.00
2022-08-20T04:24:01.636Z,100.00
2022-08-20T04:27:08.347Z,100.00
2022-08-20T04:30:15.440Z,100.00
2022-08-20T04:33:22.740Z,100.00
2022-08-20T04:36:40.608Z,100.00
2022-08-20T04:40:06.328Z,100.00
2022-08-20T04:43:12.359Z,100.00
2022-08-20T04:46:17.830Z,100.00
2022-08-20T04:49:25.147Z,100.00
2022-08-20T04:52:32.975Z,100.00
2022-08-20T04:55:41.817Z,100.00
2022-08-20T04:58:51.299Z,100.00
2022-08-20T05:01:56.641Z,100.00
2022-08-20T05:05:01.845Z,100.00
2022-08-20T05:08:07.327Z,100.00
2022-08-20T05:11:36.067Z,100.00
2022-08-20T05:14:43.613Z,100.00
2022-08-20T05:17:50.309Z,100.00
2022-08-20T05:21:04.563Z,100.00
2022-08-20T05:24:10.164Z,100.00
2022-08-20T05:27:24.706Z,100.00
2022-08-20T05:30:33.414Z,100.00
2022-08-20T05:33:40.067Z,100.00
2022-08-20T05:36:49.110Z,100.00
2022-08-20T05:39:54.975Z,100.00
2022-08-20T05:43:00.558Z,100.00
2022-08-20T05:46:06.025Z,100.00
2022-08-20T05:49:11.929Z,100.00
2022-08-20T05:52:18.558Z,100.00
2022-08-20T05:55:24.072Z,100.00
2022-08-20T05:58:31.283Z,100.00
2022-08-20T06:01:38.460Z,100.00
2022-08-20T06:04:43.916Z,100.00
2022-08-20T06:07:50.760Z,99.63
2022-08-20T06:11:00.707Z,99.44
2022-08-20T06:14:06.623Z,99.07
2022-08-20T06:17:13.489Z,98.70
2022-08-20T06:20:19.180Z,97.63
2022-08-20T06:23:25.880Z,97.13
2022-08-20T06:26:31.829Z,95.36
2022-08-20T06:29:37.112Z,92.83
2022-08-20T06:32:42.816Z,93.92
2022-08-20T06:35:49.081Z,93.22
2022-08-20T06:38:58.492Z,91.30
2022-08-20T06:42:03.899Z,91.32
2022-08-20T06:45:11.583Z,90.83
2022-08-20T06:48:17.395Z,90.22
2022-08-20T06:51:23.440Z,90.64
2022-08-20T06:54:29.436Z,91.77
2022-08-20T06:57:35.944Z,90.95
2022-08-20T07:00:42.614Z,91.46
2022-08-20T07:03:54.926Z,90.67
2022-08-20T07:07:01.300Z,90.44
2022-08-20T07:10:07.624Z,90.15
2022-08-20T07:13:15.837Z,89.66
2022-08-20T07:16:21.285Z,90.11
2022-08-20T07:19:26.651Z,89.49
2022-08-20T07:22:32.609Z,88.54
2022-08-20T07:25:38.004Z,87.02
2022-08-20T07:28:43.491Z,84.85
2022-08-20T07:32:06.593Z,82.09
2022-08-20T07:35:16.349Z,79.90
2022-08-20T07:38:24.651Z,79.52
2022-08-20T07:41:30.084Z,78.96
2022-08-20T07:44:35.409Z,77.78
2022-08-20T07:47:41.833Z,77.68
2022-08-20T07:50:50.342Z,77.61
2022-08-20T07:53:58.294Z,75.66
2022-08-20T07:57:04.052Z,74.64
2022-08-20T08:00:10.924Z,74.06
2022-08-20T08:03:16.275Z,73.45
2022-08-20T08:06:30.450Z,73.23
2022-08-20T08:09:37.069Z,71.94
2022-08-20T08:12:43.547Z,69.89
2022-08-20T08:15:50.745Z,68.45
2022-08-20T08:18:58.609Z,68.17
2022-08-20T08:22:05.153Z,65.72
2022-08-20T08:25:13.762Z,62.95
2022-08-20T08:28:19.723Z,63.82
2022-08-20T08:31:25.968Z,63.04
2022-08-20T08:34:32.871Z,61.82
2022-08-20T08:37:41.442Z,60.75
2022-08-20T08:40:48.501Z,59.33
2022-08-20T08:44:00.846Z,59.27
2022-08-20T08:47:18.455Z,58.58
2022-08-20T08:50:49.956Z,58.58
2022-08-20T08:53:53.540Z,57.51
2022-08-20T08:56:59.641Z,56.83
2022-08-20T09:00:07.338Z,56.12
2022-08-20T09:03:16.511Z,56.16
2022-08-20T09:06:24.106Z,55.11
2022-08-20T09:09:31.500Z,54.21
2022-08-20T09:12:36.947Z,53.78
2022-08-20T09:15:42.521Z,55.19
2022-08-20T09:18:48.114Z,54.99
2022-08-20T09:21:53.641Z,54.91
2022-08-20T09:24:59.554Z,54.24
2022-08-20T09:28:05.171Z,52.49
2022-08-20T09:31:10.487Z,52.76
2022-08-20T09:34:15.910Z,53.60
2022-08-20T09:37:21.331Z,54.80
2022-08-20T09:40:26.703Z,54.96
2022-08-20T09:43:32.172Z,53.56
2022-08-20T09:46:37.614Z,52.55
2022-08-20T09:49:42.965Z,52.63
2022-08-20T09:52:50.046Z,52.53
2022-08-20T09:55:58.930Z,52.56
2022-08-20T09:59:04.542Z,52.31
2022-08-20T10:02:09.925Z,53.09
2022-08-20T10:05:15.581Z,53.58
2022-08-20T10:08:20.932Z,53.69
2022-08-20T10:11:26.346Z,54.19
2022-08-20T10:14:35.570Z,54.12
2022-08-20T10:17:42.650Z,54.31
2022-08-20T10:20:47.966Z,54.37
2022-08-20T10:23:53.455Z,55.07
2022-08-20T10:26:59.629Z,53.52
2022-08-20T10:30:05.763Z,53.92
2022-08-20T10:33:11.127Z,53.98
2022-08-20T10:36:17.774Z,54.20
2022-08-20T10:39:23.274Z,54.83
2022-08-20T10:42:28.654Z,54.76
2022-08-20T10:45:34.112Z,54.73
2022-08-20T10:48:41.806Z,54.49
2022-08-20T10:51:47.183Z,54.38
2022-08-20T10:54:52.962Z,54.70
2022-08-20T10:57:58.513Z,54.67
2022-08-20T11:01:04.161Z,54.10
2022-08-20T11:04:09.500Z,54.06
2022-08-20T11:07:16.982Z,54.07
2022-08-20T11:10:22.592Z,53.40
2022-08-20T11:13:28.049Z,53.62
2022-08-20T11:16:33.367Z,52.91
2022-08-20T11:19:41.817Z,53.42
2022-08-20T11:22:47.172Z,51.87
2022-08-20T11:25:52.701Z,52.66
2022-08-20T11:28:58.286Z,53.05
2022-08-20T11:32:03.974Z,52.50
2022-08-20T11:35:41.108Z,52.94
2022-08-20T11:38:37.744Z,52.04
2022-08-20T11:41:45.797Z,51.14
2022-08-20T11:44:52.396Z,51.43
2022-08-20T11:47:57.959Z,52.12
2022-08-20T11:51:06.298Z,52.21
2022-08-20T11:54:11.604Z,52.14
2022-08-20T11:57:21.431Z,51.55
2022-08-20T12:00:32.172Z,50.47
2022-08-20T12:03:38.639Z,49.44
2022-08-20T12:06:43.872Z,49.54
2022-08-20T12:09:50.997Z,49.03
2022-08-20T12:12:56.899Z,50.06
2022-08-20T12:16:02.413Z,51.35
2022-08-20T12:19:07.635Z,51.67
2022-08-20T12:22:21.342Z,52.52
2022-08-20T12:25:29.940Z,52.62
2022-08-20T12:28:35.365Z,52.21
2022-08-20T12:31:40.701Z,52.63
2022-08-20T12:34:46.013Z,52.38
2022-08-20T12:37:51.863Z,51.87
2022-08-20T12:40:57.279Z,50.89
2022-08-20T12:44:07.118Z,51.05
2022-08-20T12:47:19.514Z,49.93
2022-08-20T12:50:31.256Z,48.47
2022-08-20T12:53:37.098Z,48.88
2022-08-20T12:56:42.430Z,48.42
2022-08-20T12:59:47.747Z,46.64
2022-08-20T13:02:54.095Z,46.31
2022-08-20T13:06:02.008Z,45.33
2022-08-20T13:09:07.283Z,44.63
2022-08-20T13:12:14.249Z,44.32
2022-08-20T13:15:20.258Z,44.23
2022-08-20T13:18:25.597Z,44.32
2022-08-20T13:21:30.885Z,42.75
2022-08-20T13:24:36.271Z,40.90
2022-08-20T13:27:43.836Z,41.21
2022-08-20T13:30:49.157Z,41.18
2022-08-20T13:33:54.528Z,41.28
2022-08-20T13:36:59.985Z,43.27
2022-08-20T13:40:07.436Z,44.94
2022-08-20T13:43:12.973Z,46.33
2022-08-20T13:46:18.278Z,47.89
2022-08-20T13:49:23.613Z,49.07
2022-08-20T13:52:29.070Z,50.67
2022-08-20T13:55:34.455Z,52.42
2022-08-20T13:58:39.883Z,53.65
2022-08-20T14:01:45.304Z,54.49
2022-08-20T14:04:51.276Z,55.98
2022-08-20T14:07:57.005Z,56.73
2022-08-20T14:11:02.558Z,57.45
2022-08-20T14:14:07.886Z,58.03
2022-08-20T14:17:18.667Z,58.33
2022-08-20T14:20:25.391Z,59.36
2022-08-20T14:23:36.824Z,59.55
2022-08-20T14:26:42.551Z,60.22
2022-08-20T14:29:48.485Z,59.86
2022-08-20T14:32:54.088Z,60.91
2022-08-20T14:35:59.475Z,61.67
2022-08-20T14:39:04.800Z,62.10
2022-08-20T14:42:10.279Z,63.16
2022-08-20T14:45:15.690Z,63.88
2022-08-20T14:48:21.064Z,65.10
2022-08-20T14:51:26.446Z,65.30
2022-08-20T14:54:32.221Z,65.46
2022-08-20T14:57:39.150Z,66.61
2022-08-20T15:00:44.937Z,67.03
2022-08-20T15:03:50.519Z,66.72
2022-08-20T15:06:56.677Z,66.72
2022-08-20T15:10:08.757Z,67.04
2022-08-20T15:13:14.222Z,67.97
2022-08-20T15:16:19.738Z,69.33
2022-08-20T15:19:25.071Z,70.40
2022-08-20T15:22:30.547Z,68.59
2022-08-20T15:25:37.909Z,72.10
2022-08-20T15:28:44.072Z,79.84
2022-08-20T15:31:49.385Z,82.60
2022-08-20T15:34:54.694Z,85.40
2022-08-20T15:38:00.237Z,87.53
2022-08-20T15:41:05.713Z,86.20
2022-08-20T15:44:11.156Z,87.37
2022-08-20T15:47:22.557Z,87.65
2022-08-20T15:50:38.762Z,90.27
2022-08-20T15:53:49.985Z,89.67
2022-08-20T15:57:03.403Z,88.93
2022-08-20T16:00:13.454Z,89.39
2022-08-20T16:03:27.560Z,90.55
2022-08-20T16:06:34.377Z,92.17
2022-08-20T16:09:50.690Z,93.58
2022-08-20T16:12:58.395Z,94.67
2022-08-20T16:16:04.545Z,97.22
2022-08-20T16:19:13.348Z,97.71
2022-08-20T16:22:19.794Z,98.57
2022-08-20T16:25:29.015Z,98.88
2022-08-20T16:28:37.805Z,100.00
2022-08-20T16:31:45.985Z,100.00
2022-08-20T16:34:55.837Z,100.00
2022-08-20T16:38:04.895Z,100.00
2022-08-20T16:41:13.517Z,100.00
2022-08-20T16:44:23.118Z,100.00
2022-08-20T16:47:30.770Z,100.00
2022-08-20T16:50:39.450Z,100.00
2022-08-20T16:53:45.026Z,100.00
2022-08-20T16:56:51.230Z,100.00
2022-08-20T17:00:06.446Z,100.00
2022-08-20T17:03:21.679Z,100.00
2022-08-20T17:06:46.348Z,100.00
2022-08-20T17:09:52.258Z,100.00
2022-08-20T17:12:59.802Z,100.00
2022-08-20T17:16:06.495Z,100.00
2022-08-20T17:19:14.782Z,100.00
2022-08-20T17:22:20.713Z,100.00
2022-08-20T17:25:32.470Z,100.00
2022-08-20T17:28:37.855Z,100.00
2022-08-20T17:31:44.648Z,100.00
2022-08-20T17:34:51.256Z,100.00
2022-08-20T17:37:56.783Z,100.00
2022-08-20T17:41:03.553Z,100.00
2022-08-20T17:44:10.257Z,100.00
2022-08-20T17:47:16.657Z,100.00
2022-08-20T17:50:25.467Z,100.00
2022-08-20T17:53:33.251Z,100.00
2022-08-20T17:56:41.257Z,100.00
2022-08-20T18:00:00.961Z,100.00
2022-08-20T18:03:15.841Z,100.00
2022-08-20T18:06:30.487Z,100.00
2022-08-20T18:09:39.895Z,100.00
2022-08-20T18:12:56.195Z,100.00
2022-08-20T18:16:02.981Z,100.00
2022-08-20T18:19:15.153Z,100.00
2022-08-20T18:22:21.858Z,100.00
2022-08-20T18:25:38.034Z,100.00
2022-08-20T18:28:46.891Z,100.00
2022-08-20T18:31:54.429Z,100.00
2022-08-20T18:35:10.065Z,100.00
2022-08-20T18:38:25.836Z,100.00
2022-08-20T18:41:32.690Z,100.00
2022-08-20T18:44:40.279Z,100.00
2022-08-20T18:47:47.443Z,100.00
2022-08-20T18:50:56.142Z,100.00
2022-08-20T18:54:01.706Z,100.00
2022-08-20T18:57:09.215Z,100.00
2022-08-20T19:00:17.208Z,100.00
2022-08-20T19:03:27.534Z,100.00
2022-08-20T19:06:42.761Z,100.00
2022-08-20T19:10:04.542Z,100.00
2022-08-20T19:13:20.649Z,100.00
2022-08-20T19:16:32.028Z,100.00
2022-08-20T19:19:38.129Z,100.00
2022-08-20T19:22:45.137Z,100.00
2022-08-20T19:25:55.497Z,100.00
2022-08-20T19:29:03.482Z,100.00
2022-08-20T19:32:10.248Z,100.00
2022-08-20T19:35:18.489Z,100.00
2022-08-20T19:38:23.929Z,100.00
2022-08-20T19:41:32.366Z,100.00
2022-08-20T19:44:40.859Z,100.00
2022-08-20T19:47:50.498Z,100.00
2022-08-20T19:51:02.789Z,100.00
2022-08-20T19:54:08.552Z,100.00
2022-08-20T19:57:14.328Z,100.00
2022-08-20T20:00:20.035Z,100.00
2022-08-20T20:03:27.737Z,100.00
2022-08-20T20:06:37.006Z,100.00
2022-08-20T20:09:43.132Z,100.00
2022-08-20T20:12:49.591Z,100.00
2022-08-20T20:19:28.113Z,100.00
2022-08-20T20:22:36.123Z,100.00
2022-08-20T20:25:47.551Z,100.00
2022-08-20T20:28:54.716Z,100.00
2022-08-20T20:32:01.727Z,100.00
2022-08-20T20:35:08.510Z,100.00
2022-08-20T20:48:55.111Z,100.00
2022-08-20T20:52:02.696Z,100.00
2022-08-20T20:55:11.625Z,100.00
2022-08-20T20:58:17.406Z,100.00
2022-08-20T21:01:45.716Z,100.00
2022-08-20T21:04:50.670Z,100.00
2022-08-20T21:07:57.852Z,100.00
2022-08-20T21:11:03.626Z,100.00
2022-08-20T21:14:09.267Z,100.00
2022-08-20T21:17:16.780Z,100.00
2022-08-20T21:20:23.442Z,100.00
2022-08-20T21:23:41.901Z,100.00
2022-08-20T21:26:48.079Z,100.00
2022-08-20T21:29:54.005Z,100.00
2022-08-20T21:32:59.810Z,100.00
2022-08-20T21:36:06.083Z,100.00
2022-08-20T21:39:11.753Z,100.00
2022-08-20T21:42:29.059Z,100.00
2022-08-20T21:45:35.871Z,100.00
2022-08-20T21:48:46.342Z,100.00
2022-08-20T21:51:53.989Z,100.00
2022-08-20T21:54:59.434Z,100.00
2022-08-20T21:58:05.645Z,100.00
2022-08-20T22:01:12.105Z,100.00
2022-08-20T22:04:17.915Z,100.00
2022-08-20T22:07:23.758Z,100.00
2022-08-20T22:10:29.452Z,100.00
2022-08-20T22:13:35.607Z,100.00
2022-08-20T22:16:42.337Z,100.00
2022-08-20T22:19:51.121Z,100.00
2022-08-20T22:22:57.121Z,100.00
2022-08-20T22:26:02.977Z,100.00
2022-08-20T22:29:09.364Z,100.00
2022-08-20T22:32:16.059Z,100.00
2022-08-20T22:35:23.402Z,100.00
2022-08-20T22:38:29.196Z,100.00
2022-08-20T22:41:35.555Z,100.00
2022-08-20T22:44:42.261Z,100.00
2022-08-20T22:47:47.982Z,100.00
2022-08-20T22:50:56.194Z,100.00
2022-08-20T22:54:02.871Z,100.00
2022-08-20T22:57:08.764Z,100.00
2022-08-20T23:00:16.920Z,100.00
2022-08-20T23:03:32.204Z,100.00
2022-08-20T23:06:45.320Z,100.00
2022-08-20T23:09:50.859Z,100.00
2022-08-20T23:12:57.348Z,100.00
2022-08-20T23:16:03.057Z,100.00
2022-08-20T23:19:10.059Z,100.00
2022-08-20T23:22:15.844Z,100.00
2022-08-20T23:25:21.464Z,100.00
2022-08-20T23:28:27.158Z,100.00
2022-08-20T23:31:32.986Z,100.00
2022-08-20T23:34:38.602Z,100.00
2022-08-20T23:37:45.589Z,100.00
2022-08-20T23:40:51.355Z,100.00
2022-08-20T23:43:56.854Z,100.00
2022-08-20T23:47:03.475Z,100.00
2022-08-20T23:50:13.253Z,100.00
2022-08-20T23:53:21.378Z,100.00
2022-08-20T23:56:28.092Z,100.00
2022-08-20T23:59:36.245Z,100.00
